Time;durP1;ratioP1;P1;durP2;ratioP2;P2;SDS_P1;SDS_P2;PMS_P1;PMS_P2;Temp;Humidity;BMP_temperature;BMP_pressure;BME280_temperature;BME280_humidity;BME280_pressure;Samples;Min_cycle;Max_cycle;Signal;HPM_P1;HPM_P2
2022/06/24 00:01:41;;;;;;;11.15;2.28;;;19.20;81.20;;;;;;5034359;28;20132;-78
2022/06/24 00:04:07;;;;;;;11.65;2.15;;;19.10;81.40;;;;;;5034475;28;20025;-79
2022/06/24 00:06:50;;;;;;;11.48;2.38;;;18.90;82.10;;;;;;5034312;28;20390;-79
2022/06/24 00:09:16;;;;;;;8.75;2.03;;;18.80;82.60;;;;;;5034334;28;20037;-80
2022/06/24 00:11:42;;;;;;;11.68;2.55;;;18.70;83.10;;;;;;5034368;28;20478;-79
2022/06/24 00:14:14;;;;;;;9.88;2.30;;;18.60;83.40;;;;;;5034230;28;20022;-80
2022/06/24 00:16:57;;;;;;;5.68;2.05;;;18.60;84.00;;;;;;5034216;28;20113;-80
2022/06/24 00:19:27;;;;;;;7.10;2.05;;;18.70;84.20;;;;;;5034063;28;20021;-80
2022/06/24 00:22:05;;;;;;;10.63;2.10;;;18.80;83.60;;;;;;5034051;28;20224;-80
2022/06/24 00:24:32;;;;;;;7.20;2.30;;;18.80;82.10;;;;;;5034042;28;20022;-80
2022/06/24 00:26:58;;;;;;;7.60;1.88;;;18.90;82.20;;;;;;5034714;28;20026;-80
2022/06/24 00:29:26;;;;;;;5.88;1.95;;;18.90;81.90;;;;;;5036142;28;20025;-80
2022/06/24 00:32:01;;;;;;;10.77;2.30;;;18.70;80.80;;;;;;5034210;28;20025;-79
2022/06/24 00:34:26;;;;;;;6.47;2.03;;;18.60;81.80;;;;;;5034068;28;20604;-80
2022/06/24 00:36:52;;;;;;;8.02;1.92;;;18.50;82.40;;;;;;5033201;28;20117;-81
2022/06/24 00:39:17;;;;;;;7.68;2.47;;;18.50;82.80;;;;;;5033733;28;20351;-80
2022/06/24 00:41:48;;;;;;;6.68;2.10;;;18.60;82.10;;;;;;5033784;28;20033;-80
2022/06/24 00:44:17;;;;;;;6.35;1.83;;;18.50;82.30;;;;;;5033784;28;20071;-79
2022/06/24 00:46:46;;;;;;;9.13;2.05;;;18.50;81.60;;;;;;5033587;28;20474;-80
2022/06/24 00:49:13;;;;;;;6.60;1.83;;;18.60;81.90;;;;;;5033492;28;20072;-80
2022/06/24 00:51:38;;;;;;;6.88;1.98;;;18.60;81.70;;;;;;5033602;28;20076;-80
2022/06/24 00:54:12;;;;;;;4.68;1.70;;;18.50;82.20;;;;;;5033698;28;20022;-80
2022/06/24 00:56:38;;;;;;;4.32;1.90;;;18.40;82.30;;;;;;5033576;28;20055;-80
2022/06/24 00:59:08;;;;;;;9.27;2.08;;;18.40;82.60;;;;;;5033618;28;20025;-80
2022/06/24 01:01:36;;;;;;;7.90;1.60;;;18.40;82.50;;;;;;5033424;28;20034;-80
2022/06/24 01:04:07;;;;;;;4.65;1.85;;;18.50;82.70;;;;;;5033356;28;20474;-80
2022/06/24 01:06:34;;;;;;;8.55;2.40;;;18.50;82.40;;;;;;5033343;28;20386;-80
2022/06/24 01:09:00;;;;;;;7.28;1.85;;;18.50;82.10;;;;;;5033345;28;20060;-80
2022/06/24 01:11:34;;;;;;;7.28;2.42;;;18.40;82.20;;;;;;5033217;28;20033;-80
2022/06/24 01:14:00;;;;;;;6.30;1.95;;;18.50;82.30;;;;;;5033222;28;20024;-80
2022/06/24 01:16:26;;;;;;;8.13;1.77;;;18.50;81.90;;;;;;5033191;28;20029;-80
2022/06/24 01:18:53;;;;;;;11.05;2.28;;;18.60;81.80;;;;;;5033175;28;20494;-80
2022/06/24 01:21:40;;;;;;;6.93;2.00;;;18.60;81.40;;;;;;5015298;28;20044;-80
2022/06/24 01:24:16;;;;;;;4.38;1.88;;;18.50;81.70;;;;;;5033013;28;20024;-80
2022/06/24 01:26:44;;;;;;;4.72;1.73;;;18.50;82.10;;;;;;5033012;28;20033;-80
2022/06/24 01:29:10;;;;;;;5.30;1.67;;;18.50;82.90;;;;;;5033035;28;20022;-80
2022/06/24 01:31:40;;;;;;;5.38;1.80;;;18.50;81.80;;;;;;5032989;28;20024;-80
2022/06/24 01:34:07;;;;;;;5.43;1.70;;;18.50;81.80;;;;;;5032984;28;20017;-79
2022/06/24 01:36:32;;;;;;;6.10;2.40;;;18.50;81.70;;;;;;5015188;28;20542;-80
2022/06/24 01:38:58;;;;;;;6.80;2.20;;;18.50;82.00;;;;;;5032921;28;20156;-80
2022/06/24 01:41:24;;;;;;;6.20;2.08;;;18.40;81.70;;;;;;5032825;28;20037;-80
2022/06/24 01:43:49;;;;;;;4.15;1.50;;;18.50;81.60;;;;;;5032993;28;20026;-80
2022/06/24 01:46:15;;;;;;;5.95;1.90;;;18.40;81.40;;;;;;5033173;28;20494;-80
2022/06/24 01:48:41;;;;;;;7.93;1.90;;;18.50;81.40;;;;;;5019115;28;20021;-80
2022/06/24 01:51:09;;;;;;;6.13;1.80;;;18.50;81.20;;;;;;5036804;28;20054;-80
2022/06/24 01:53:35;;;;;;;8.13;1.70;;;18.50;81.40;;;;;;5019161;28;20449;-79
2022/06/24 01:56:01;;;;;;;5.10;1.60;;;18.40;81.30;;;;;;5036973;28;20029;-80
2022/06/24 01:58:27;;;;;;;5.43;1.85;;;18.40;81.50;;;;;;5037055;28;20043;-79
2022/06/24 02:00:52;;;;;;;6.35;1.83;;;18.40;81.80;;;;;;5036859;28;20033;-80
2022/06/24 02:03:18;;;;;;;4.28;1.50;;;18.30;81.80;;;;;;5019322;28;20040;-79
2022/06/24 02:05:46;;;;;;;8.02;1.80;;;18.30;82.20;;;;;;5036947;28;20033;-80
2022/06/24 02:08:12;;;;;;;3.67;1.70;;;18.30;82.10;;;;;;5036989;28;20023;-80
2022/06/24 02:13:28;;;;;;;3.88;1.77;;;18.40;81.80;;;;;;5036954;28;20035;-79
2022/06/24 02:15:54;;;;;;;5.88;1.60;;;18.30;81.80;;;;;;5036807;28;20032;-79
2022/06/24 02:18:21;;;;;;;4.25;1.80;;;18.30;82.10;;;;;;5036820;28;20104;-79
2022/06/24 02:20:46;;;;;;;5.38;1.73;;;18.20;82.30;;;;;;5036647;28;20030;-79
2022/06/24 02:23:12;;;;;;;6.78;1.80;;;18.20;82.20;;;;;;5036750;28;20052;-80
2022/06/24 02:25:37;;;;;;;6.63;1.73;;;18.20;82.10;;;;;;5036739;28;20013;-80
2022/06/24 02:28:03;;;;;;;5.70;1.88;;;18.20;82.30;;;;;;5037214;28;20033;-80
2022/06/24 02:30:29;;;;;;;7.45;1.83;;;18.20;82.30;;;;;;5038101;28;20024;-80
2022/06/24 02:32:55;;;;;;;6.18;1.58;;;18.10;82.30;;;;;;5037247;28;20484;-80
2022/06/24 02:35:21;;;;;;;8.13;2.13;;;18.10;82.30;;;;;;5037157;28;20021;-79
2022/06/24 02:37:46;;;;;;;9.15;1.80;;;18.20;82.20;;;;;;5037584;28;20533;-78
2022/06/24 02:42:57;;;;;;;7.50;1.73;;;18.20;81.80;;;;;;5036404;28;20083;-79
2022/06/24 02:45:23;;;;;;;8.98;1.45;;;18.10;81.30;;;;;;5036045;28;20029;-80
2022/06/24 02:47:49;;;;;;;9.90;2.08;;;18.10;81.20;;;;;;5036972;28;20109;-79
2022/06/24 02:50:15;;;;;;;6.15;1.80;;;18.00;81.10;;;;;;5035968;28;20057;-80
2022/06/24 02:52:41;;;;;;;6.25;2.00;;;18.00;81.40;;;;;;5018315;28;20485;-80
2022/06/24 02:55:07;;;;;;;7.15;1.75;;;17.90;81.70;;;;;;5035820;28;20053;-79
2022/06/24 02:57:32;;;;;;;4.45;1.77;;;17.80;81.90;;;;;;5035837;28;20029;-80
2022/06/24 02:59:58;;;;;;;9.57;2.13;;;17.80;82.20;;;;;;5034873;28;20021;-80
2022/06/24 03:02:24;;;;;;;3.90;1.52;;;17.70;82.50;;;;;;5035612;28;20040;-79
2022/06/24 03:04:49;;;;;;;6.50;2.15;;;17.60;83.20;;;;;;5035596;28;20025;-80
2022/06/24 03:07:15;;;;;;;6.13;1.90;;;17.60;83.30;;;;;;5035687;28;20025;-79
2022/06/24 03:09:41;;;;;;;6.97;1.92;;;17.60;83.60;;;;;;5035609;28;20056;-79
2022/06/24 03:12:06;;;;;;;10.23;2.72;;;17.70;83.70;;;;;;5035372;28;20064;-79
2022/06/24 03:14:32;;;;;;;7.38;1.90;;;17.70;83.00;;;;;;5035394;28;20025;-80
2022/06/24 03:16:58;;;;;;;10.13;2.42;;;17.70;82.80;;;;;;5035474;28;20026;-79
2022/06/24 03:19:23;;;;;;;11.60;2.08;;;17.70;82.50;;;;;;5035309;28;20060;-80
2022/06/24 03:21:49;;;;;;;5.63;1.80;;;17.70;82.20;;;;;;5035260;28;20379;-80
2022/06/24 03:24:15;;;;;;;7.18;2.08;;;17.60;82.50;;;;;;5035169;28;20381;-79
2022/06/24 03:26:41;;;;;;;7.38;1.88;;;17.60;82.30;;;;;;5035170;28;20033;-79
2022/06/24 03:29:06;;;;;;;10.10;2.50;;;17.60;82.70;;;;;;5035187;28;20021;-80
2022/06/24 03:31:32;;;;;;;5.72;1.80;;;17.50;83.00;;;;;;5035090;28;20104;-78
2022/06/24 03:33:58;;;;;;;4.85;1.70;;;17.40;83.00;;;;;;5017294;28;20470;-79
2022/06/24 03:36:24;;;;;;;7.53;1.90;;;17.50;83.30;;;;;;5035019;28;20021;-79
2022/06/24 03:38:50;;;;;;;6.90;2.05;;;17.40;83.20;;;;;;5035173;28;20103;-80
2022/06/24 03:41:16;;;;;;;7.68;1.80;;;17.40;83.00;;;;;;5034841;28;20478;-80
2022/06/24 03:43:41;;;;;;;6.47;1.67;;;17.40;83.10;;;;;;5034894;28;20382;-80
2022/06/24 03:46:07;;;;;;;6.47;1.60;;;17.40;83.30;;;;;;5034792;28;20021;-79
2022/06/24 03:48:32;;;;;;;4.90;2.22;;;17.40;83.50;;;;;;5034745;28;20026;-79
2022/06/24 03:50:58;;;;;;;10.63;2.15;;;17.40;83.20;;;;;;5034654;28;20053;-80
2022/06/24 03:53:24;;;;;;;8.23;1.88;;;17.40;83.00;;;;;;5034715;28;20021;-80
2022/06/24 03:55:50;;;;;;;7.18;1.77;;;17.50;82.80;;;;;;5034577;28;20083;-80
2022/06/24 03:58:18;;;;;;;8.63;2.00;;;17.60;82.40;;;;;;5034462;28;20021;-80
2022/06/24 04:00:45;;;;;;;9.68;2.30;;;17.60;82.10;;;;;;5034521;28;20060;-79
2022/06/24 04:03:11;;;;;;;5.22;1.77;;;17.70;82.00;;;;;;5034476;28;20484;-80
2022/06/24 04:05:36;;;;;;;5.90;1.73;;;17.70;81.80;;;;;;5034513;28;20053;-79
2022/06/24 04:08:02;;;;;;;3.70;1.85;;;17.70;81.70;;;;;;5034843;28;20037;-79
2022/06/24 04:10:27;;;;;;;3.70;1.77;;;17.80;81.50;;;;;;5034303;28;20100;-80
2022/06/24 04:12:53;;;;;;;10.73;1.90;;;17.80;81.40;;;;;;5034306;28;20462;-79
2022/06/24 04:15:19;;;;;;;8.82;1.95;;;17.90;81.40;;;;;;5034239;28;20553;-79
2022/06/24 04:17:49;;;;;;;9.68;1.92;;;17.90;81.10;;;;;;5016409;28;20018;-77
2022/06/24 04:20:17;;;;;;;8.63;1.80;;;18.00;80.80;;;;;;5034078;28;20099;-78
2022/06/24 04:22:43;;;;;;;10.30;2.03;;;18.10;80.80;;;;;;5034198;28;20501;-79
2022/06/24 04:25:10;;;;;;;8.45;1.50;;;18.30;80.20;;;;;;5034156;28;20052;-78
2022/06/24 04:27:36;;;;;;;7.20;2.60;;;18.30;79.50;;;;;;5034212;28;20026;-80
2022/06/24 04:30:05;;;;;;;6.97;2.47;;;18.40;79.20;;;;;;5034032;28;20040;-79
2022/06/24 04:32:31;;;;;;;5.47;1.67;;;18.30;79.20;;;;;;5015968;28;20021;-79
2022/06/24 04:34:57;;;;;;;9.85;1.88;;;18.40;78.80;;;;;;5034044;28;20473;-80
2022/06/24 04:37:22;;;;;;;7.38;1.92;;;18.40;78.70;;;;;;5033716;28;20025;-78
2022/06/24 04:39:48;;;;;;;5.65;1.77;;;18.40;78.80;;;;;;5033959;28;20018;-79
2022/06/24 04:42:14;;;;;;;9.95;2.10;;;18.40;79.00;;;;;;5033744;28;20045;-80
2022/06/24 04:44:39;;;;;;;12.13;2.70;;;18.40;78.90;;;;;;5033742;28;20385;-79
2022/06/24 04:47:05;;;;;;;7.85;2.13;;;18.30;79.50;;;;;;5033716;28;20025;-80
2022/06/24 04:49:32;;;;;;;6.40;1.60;;;18.40;79.20;;;;;;5015713;28;20402;-80
2022/06/24 04:51:58;;;;;;;12.43;2.55;;;18.50;79.40;;;;;;5033666;28;20038;-80
2022/06/24 04:54:24;;;;;;;13.43;2.38;;;18.40;79.50;;;;;;5033636;28;20385;-79
2022/06/24 04:56:49;;;;;;;8.52;2.10;;;18.50;79.60;;;;;;5033699;28;20052;-80
2022/06/24 04:59:15;;;;;;;7.65;2.03;;;18.50;79.40;;;;;;5033490;28;20041;-79
2022/06/24 05:01:40;;;;;;;7.28;1.75;;;18.60;79.00;;;;;;5033278;28;20095;-80
2022/06/24 05:04:06;;;;;;;9.95;2.15;;;18.70;79.10;;;;;;5033337;28;20017;-79
2022/06/24 05:06:32;;;;;;;5.03;1.70;;;18.80;78.60;;;;;;5033546;28;20041;-79
2022/06/24 05:08:57;;;;;;;5.28;1.55;;;18.90;78.70;;;;;;5033322;28;20033;-79
2022/06/24 05:11:23;;;;;;;8.32;2.15;;;19.00;78.30;;;;;;5033513;28;20132;-79
2022/06/24 05:13:49;;;;;;;9.93;2.20;;;18.90;78.30;;;;;;5015850;28;20024;-79
2022/06/24 05:16:15;;;;;;;6.13;2.17;;;18.70;78.50;;;;;;5015454;28;20389;-79
2022/06/24 05:18:41;;;;;;;7.10;1.60;;;18.70;79.00;;;;;;5033151;28;20017;-79
2022/06/24 05:21:06;;;;;;;8.57;2.00;;;18.60;78.70;;;;;;5014829;28;20034;-79
2022/06/24 05:23:32;;;;;;;7.35;1.88;;;18.50;79.00;;;;;;5033065;28;20448;-79
2022/06/24 05:25:57;;;;;;;6.63;1.98;;;18.60;78.90;;;;;;5033096;28;20470;-79
2022/06/24 05:28:23;;;;;;;5.45;1.73;;;18.60;79.10;;;;;;5032661;28;20048;-79
2022/06/24 05:30:58;;;;;;;6.75;1.83;;;18.60;78.90;;;;;;5014686;28;20051;-80
2022/06/24 05:33:25;;;;;;;7.05;1.73;;;18.70;78.90;;;;;;5032879;28;20128;-79
2022/06/24 05:35:55;;;;;;;5.53;2.30;;;18.80;78.60;;;;;;5032901;28;20447;-81
2022/06/24 05:38:22;;;;;;;7.85;2.10;;;18.90;78.70;;;;;;5032725;28;20022;-79
2022/06/24 05:40:51;;;;;;;6.47;1.95;;;19.10;78.20;;;;;;5032665;28;20470;-78
2022/06/24 05:43:20;;;;;;;5.07;2.17;;;19.20;77.60;;;;;;5032611;28;20494;-79
2022/06/24 05:45:46;;;;;;;5.43;2.38;;;19.30;77.20;;;;;;5015035;28;20033;-79
2022/06/24 05:48:16;;;;;;;7.63;1.92;;;19.20;77.00;;;;;;5032425;28;20037;-78
2022/06/24 05:50:42;;;;;;;8.73;2.40;;;19.30;77.30;;;;;;5032134;28;20533;-79
2022/06/24 05:56:00;;;;;;;7.40;2.28;;;19.50;76.60;;;;;;5032712;28;20059;-78
2022/06/24 05:58:30;;;;;;;6.80;2.08;;;19.50;76.00;;;;;;5014915;28;20063;-80
2022/06/24 06:00:56;;;;;;;8.55;2.38;;;19.60;76.10;;;;;;5032192;28;20025;-80
2022/06/24 06:03:22;;;;;;;8.23;2.30;;;19.60;76.00;;;;;;5032367;28;20108;-79
2022/06/24 06:05:48;;;;;;;5.55;2.22;;;19.70;75.00;;;;;;5032174;28;20105;-79
2022/06/24 06:08:15;;;;;;;10.48;2.38;;;19.70;75.70;;;;;;5032199;28;20031;-78
2022/06/24 06:10:43;;;;;;;9.25;2.05;;;19.80;75.60;;;;;;5032033;28;20021;-78
2022/06/24 06:13:10;;;;;;;9.68;2.97;;;20.00;75.30;;;;;;5032115;28;20201;-79
2022/06/24 06:15:36;;;;;;;8.23;2.63;;;20.00;74.60;;;;;;5031881;28;20478;-79
2022/06/24 06:18:01;;;;;;;7.10;2.20;;;20.10;74.50;;;;;;5031906;28;20022;-79
2022/06/24 06:20:27;;;;;;;8.13;2.42;;;20.20;74.50;;;;;;5031629;28;20041;-79
2022/06/24 06:22:53;;;;;;;6.57;2.45;;;20.20;74.50;;;;;;5031742;28;20046;-78
2022/06/24 06:25:19;;;;;;;7.22;2.00;;;20.10;74.00;;;;;;5031711;28;20022;-80
2022/06/24 06:27:44;;;;;;;4.97;2.28;;;20.10;74.50;;;;;;5032051;28;20032;-79
2022/06/24 06:30:11;;;;;;;5.75;2.30;;;20.00;74.80;;;;;;5031988;28;20037;-80
2022/06/24 06:32:36;;;;;;;8.80;2.20;;;20.20;74.80;;;;;;5031935;28;20026;-80
2022/06/24 06:35:03;;;;;;;9.43;2.03;;;20.40;74.50;;;;;;5034898;28;20037;-79
2022/06/24 06:37:29;;;;;;;7.28;1.80;;;20.60;73.00;;;;;;5035519;28;20389;-80
2022/06/24 06:39:56;;;;;;;3.47;1.50;;;20.80;72.40;;;;;;5035621;28;20108;-79
2022/06/24 06:42:21;;;;;;;6.82;2.28;;;21.00;71.60;;;;;;5035430;28;20045;-79
2022/06/24 06:44:47;;;;;;;10.88;2.28;;;21.30;70.90;;;;;;5036949;28;20429;-79
2022/06/24 06:47:12;;;;;;;7.68;2.03;;;21.50;70.20;;;;;;5036598;28;20111;-79
2022/06/24 06:49:38;;;;;;;7.50;1.85;;;21.50;68.00;;;;;;5018416;28;20553;-79
2022/06/24 06:52:04;;;;;;;5.95;2.33;;;21.50;68.10;;;;;;5036715;28;20382;-79
2022/06/24 06:54:30;;;;;;;7.03;1.98;;;21.60;69.00;;;;;;5035864;28;20497;-80
2022/06/24 06:56:56;;;;;;;7.85;2.53;;;21.80;69.30;;;;;;5036123;28;20096;-80
2022/06/24 06:59:22;;;;;;;5.22;1.85;;;21.80;68.80;;;;;;5017624;28;20025;-80
2022/06/24 07:01:48;;;;;;;7.65;1.83;;;22.00;68.30;;;;;;5035043;28;20095;-80
2022/06/24 07:04:14;;;;;;;5.28;1.73;;;22.10;66.00;;;;;;5034829;28;20026;-80
2022/06/24 07:06:39;;;;;;;7.63;1.88;;;21.90;64.50;;;;;;5035338;28;20489;-79
2022/06/24 07:09:05;;;;;;;5.53;2.15;;;21.80;64.50;;;;;;5034697;28;20026;-79
2022/06/24 07:11:31;;;;;;;6.13;1.85;;;21.60;64.60;;;;;;5034901;28;20041;-80
2022/06/24 07:13:56;;;;;;;6.22;1.77;;;21.20;65.70;;;;;;5034989;28;20029;-80
2022/06/24 07:16:22;;;;;;;5.70;2.00;;;21.00;67.80;;;;;;5034931;28;20033;-80
2022/06/24 07:18:47;;;;;;;4.13;1.77;;;20.90;67.00;;;;;;5034705;28;20490;-79
2022/06/24 07:21:13;;;;;;;6.82;1.77;;;20.90;68.30;;;;;;5034464;28;20076;-80
2022/06/24 07:23:40;;;;;;;4.07;1.55;;;21.00;67.40;;;;;;5034654;28;20014;-79
2022/06/24 07:26:06;;;;;;;7.38;2.53;;;21.10;67.00;;;;;;5016800;28;20030;-80
2022/06/24 07:28:34;;;;;;;6.70;1.85;;;21.20;66.80;;;;;;5016739;28;20032;-80
2022/06/24 07:31:00;;;;;;;5.43;1.65;;;21.30;67.60;;;;;;5034626;28;20030;-80
2022/06/24 07:33:25;;;;;;;3.63;1.60;;;21.20;66.00;;;;;;5034400;28;20028;-80
2022/06/24 07:35:51;;;;;;;8.32;1.65;;;21.30;67.00;;;;;;5034313;28;20087;-80
2022/06/24 07:38:17;;;;;;;9.38;1.92;;;21.30;67.20;;;;;;5034188;28;20037;-80
2022/06/24 07:40:43;;;;;;;9.43;1.88;;;21.40;68.00;;;;;;5034157;28;20030;-81
2022/06/24 07:43:08;;;;;;;4.10;1.58;;;21.20;67.80;;;;;;5034264;28;20079;-79
2022/06/24 07:45:34;;;;;;;7.15;2.15;;;21.20;66.90;;;;;;5016277;28;20108;-79
2022/06/24 07:48:00;;;;;;;5.43;1.63;;;21.30;66.50;;;;;;5034252;28;20021;-79
2022/06/24 07:50:25;;;;;;;9.25;1.65;;;21.40;65.50;;;;;;5034040;28;20050;-80
2022/06/24 07:52:51;;;;;;;8.85;2.05;;;21.30;66.10;;;;;;5034169;28;20017;-80
2022/06/24 07:58:00;;;;;;;7.97;1.90;;;21.50;66.50;;;;;;5034518;28;20036;-81
2022/06/24 08:00:26;;;;;;;7.10;1.75;;;21.70;67.50;;;;;;5034078;28;20025;-80
2022/06/24 08:02:52;;;;;;;7.32;1.88;;;21.90;67.10;;;;;;5033965;28;20033;-80
2022/06/24 08:05:17;;;;;;;7.07;1.88;;;22.10;66.00;;;;;;5033785;28;20044;-81
2022/06/24 08:07:44;;;;;;;6.45;1.75;;;22.20;66.10;;;;;;5016189;28;20470;-81
2022/06/24 08:10:10;;;;;;;6.15;2.13;;;22.30;66.10;;;;;;5033913;28;20347;-80
2022/06/24 08:12:36;;;;;;;7.72;2.05;;;22.50;65.00;;;;;;5033780;28;20045;-80
2022/06/24 08:15:02;;;;;;;5.65;1.75;;;22.70;64.50;;;;;;5034185;28;20036;-81
2022/06/24 08:17:27;;;;;;;4.30;1.55;;;22.30;61.70;;;;;;5034048;28;20022;-80
2022/06/24 08:19:53;;;;;;;7.43;1.52;;;22.30;62.00;;;;;;5015879;28;20025;-78
2022/06/24 08:22:20;;;;;;;5.57;1.70;;;22.40;60.40;;;;;;5033791;28;20042;-80
2022/06/24 08:24:46;;;;;;;7.53;1.58;;;22.60;61.10;;;;;;5033961;28;20036;-79
2022/06/24 08:27:12;;;;;;;4.32;1.38;;;22.70;60.80;;;;;;5033922;28;20029;-80
2022/06/24 08:29:38;;;;;;;8.23;2.15;;;22.90;60.30;;;;;;5033966;28;20071;-81
2022/06/24 08:32:04;;;;;;;3.97;1.30;;;23.00;59.90;;;;;;5033748;28;20025;-81
2022/06/24 08:34:30;;;;;;;5.00;1.17;;;23.10;56.70;;;;;;5033694;28;20432;-80
2022/06/24 08:36:56;;;;;;;3.80;1.33;;;23.20;56.10;;;;;;5015734;28;20025;-81
2022/06/24 08:39:21;;;;;;;4.93;1.17;;;23.00;54.80;;;;;;5033586;28;20029;-81
2022/06/24 08:41:53;;;;;;;5.28;1.50;;;22.90;55.50;;;;;;5033351;28;20394;-81
2022/06/24 08:44:20;;;;;;;3.53;1.30;;;22.70;56.50;;;;;;5015820;28;20087;-78
2022/06/24 08:46:45;;;;;;;4.38;1.10;;;23.00;56.30;;;;;;5033539;28;20108;-81
2022/06/24 08:49:11;;;;;;;5.43;1.80;;;23.30;55.70;;;;;;5033264;28;20053;-81
2022/06/24 08:51:37;;;;;;;4.32;1.40;;;23.50;56.50;;;;;;5033448;28;20083;-79
2022/06/24 08:54:03;;;;;;;2.55;1.02;;;23.70;53.40;;;;;;5033314;28;20026;-81
2022/06/24 08:56:29;;;;;;;4.53;1.58;;;23.50;53.10;;;;;;5033093;28;20343;-81
2022/06/24 08:58:55;;;;;;;2.38;1.20;;;23.30;52.70;;;;;;5033453;28;20027;-80
2022/06/24 09:01:21;;;;;;;2.80;1.38;;;23.40;51.60;;;;;;5033258;28;20449;-81
2022/06/24 09:03:48;;;;;;;7.38;1.70;;;23.40;53.20;;;;;;5033244;28;20025;-81
2022/06/24 09:06:15;;;;;;;3.40;1.33;;;23.50;53.40;;;;;;5032874;28;20030;-81
2022/06/24 09:08:47;;;;;;;4.50;1.50;;;23.60;53.20;;;;;;5015019;28;20071;-81
2022/06/24 09:11:13;;;;;;;4.53;1.30;;;23.80;51.70;;;;;;5032898;28;20037;-81
2022/06/24 09:13:46;;;;;;;3.10;1.17;;;23.90;52.00;;;;;;5032832;28;20052;-82
2022/06/24 09:16:13;;;;;;;6.43;1.65;;;23.90;53.30;;;;;;5032987;28;20029;-81
2022/06/24 09:18:39;;;;;;;3.90;1.35;;;24.00;52.90;;;;;;5033017;28;20021;-81
2022/06/24 09:21:06;;;;;;;6.75;1.48;;;24.10;52.70;;;;;;5032785;28;20029;-81
2022/06/24 09:23:32;;;;;;;6.68;1.60;;;24.10;53.30;;;;;;5032822;28;20064;-82
2022/06/24 09:26:00;;;;;;;3.63;1.20;;;23.80;54.90;;;;;;5033151;28;20021;-80
2022/06/24 09:28:32;;;;;;;7.00;1.92;;;23.90;54.50;;;;;;5032714;28;20506;-81
2022/06/24 09:31:03;;;;;;;2.88;1.20;;;24.30;51.70;;;;;;5032707;28;20509;-81
2022/06/24 09:33:36;;;;;;;6.00;1.50;;;24.50;52.60;;;;;;5014866;28;20116;-81
2022/06/24 09:36:03;;;;;;;3.75;1.35;;;24.60;49.20;;;;;;5015097;28;20438;-81
2022/06/24 09:38:29;;;;;;;3.53;1.20;;;24.70;48.70;;;;;;5014979;28;20390;-81
2022/06/24 09:41:06;;;;;;;4.53;1.38;;;24.60;49.70;;;;;;5032619;28;20025;-82
2022/06/24 09:43:32;;;;;;;4.93;1.75;;;24.70;49.80;;;;;;5032602;28;20021;-82
2022/06/24 09:45:59;;;;;;;4.38;1.38;;;24.90;49.70;;;;;;5032548;28;20513;-80
2022/06/24 09:48:32;;;;;;;5.88;1.65;;;25.00;47.90;;;;;;5032771;28;20026;-81
2022/06/24 09:51:03;;;;;;;7.88;1.27;;;25.10;48.20;;;;;;5032497;28;20433;-81
2022/06/24 09:53:35;;;;;;;3.08;0.93;;;25.10;48.10;;;;;;5032780;28;20022;-81
2022/06/24 09:56:08;;;;;;;3.78;1.83;;;25.20;47.90;;;;;;5032715;28;20462;-81
2022/06/24 09:58:35;;;;;;;6.50;1.60;;;25.40;48.60;;;;;;5032563;28;20034;-81
2022/06/24 10:01:00;;;;;;;2.08;0.98;;;25.30;48.90;;;;;;5032186;28;20065;-81
2022/06/24 10:03:27;;;;;;;5.25;1.40;;;25.10;48.10;;;;;;5032282;28;20053;-81
2022/06/24 10:06:02;;;;;;;4.22;1.20;;;24.90;49.40;;;;;;5014188;28;20437;-81
2022/06/24 10:08:32;;;;;;;6.90;1.75;;;24.70;50.90;;;;;;5034187;28;20025;-81
2022/06/24 10:11:00;;;;;;;4.05;1.30;;;24.70;50.70;;;;;;5046132;28;20092;-81
2022/06/24 10:13:31;;;;;;;4.28;1.17;;;24.90;50.30;;;;;;5043095;28;20018;-82
2022/06/24 10:16:06;;;;;;;4.32;1.30;;;25.10;47.90;;;;;;5036571;28;20036;-81
2022/06/24 10:18:43;;;;;;;6.38;1.70;;;24.80;49.30;;;;;;5035895;28;20147;-81
2022/06/24 10:21:10;;;;;;;5.55;2.03;;;24.70;50.70;;;;;;5038060;28;20120;-80
2022/06/24 10:23:50;;;;;;;3.60;1.15;;;24.50;50.80;;;;;;5037243;28;20018;-82
2022/06/24 10:26:17;;;;;;;5.65;1.63;;;24.40;51.00;;;;;;5035812;28;20088;-81
2022/06/24 10:29:04;;;;;;;4.68;1.52;;;24.40;51.20;;;;;;5039331;28;20075;-81
2022/06/24 10:34:26;;;;;;;3.75;1.20;;;24.80;51.10;;;;;;5035547;28;20060;-81
2022/06/24 10:36:59;;;;;;;2.40;1.25;;;24.90;51.00;;;;;;5035715;28;20048;-81
2022/06/24 10:39:30;;;;;;;4.20;1.15;;;25.00;51.30;;;;;;5035773;28;20022;-80
2022/06/24 10:42:14;;;;;;;5.40;1.52;;;25.30;50.20;;;;;;5035519;28;20037;-83
2022/06/24 10:44:51;;;;;;;3.28;1.20;;;25.50;50.50;;;;;;5035447;28;20125;-83
2022/06/24 10:47:18;;;;;;;3.60;1.75;;;25.40;48.10;;;;;;5035400;28;20034;-80
2022/06/24 10:49:52;;;;;;;4.70;1.65;;;24.70;50.80;;;;;;5034986;28;20059;-82
2022/06/24 10:52:53;;;;;;;3.63;2.30;;;24.60;51.60;;;;;;5035325;28;20079;-81
2022/06/24 10:55:23;;;;;;;6.18;2.03;;;24.70;50.30;;;;;;5035279;28;20029;-79
2022/06/24 10:58:03;;;;;;;5.10;1.50;;;24.80;50.80;;;;;;5035513;28;20103;-79
2022/06/24 11:00:42;;;;;;;5.50;2.17;;;25.10;49.90;;;;;;5035400;28;20120;-82
2022/06/24 11:03:07;;;;;;;5.35;1.50;;;25.10;50.20;;;;;;5035489;28;20029;-80
2022/06/24 11:05:38;;;;;;;6.60;1.52;;;25.10;50.20;;;;;;5035144;28;20041;-80
2022/06/24 11:08:19;;;;;;;5.82;1.45;;;25.40;49.90;;;;;;5035804;28;20030;-82
2022/06/24 11:10:47;;;;;;;4.63;1.55;;;25.40;49.70;;;;;;5039416;28;20033;-79
2022/06/24 11:13:13;;;;;;;3.53;1.40;;;25.60;48.90;;;;;;5036845;28;20029;-81
2022/06/24 11:15:58;;;;;;;4.55;1.40;;;25.80;48.90;;;;;;5018390;28;20026;-80
2022/06/24 11:18:28;;;;;;;5.10;1.20;;;26.10;47.70;;;;;;5035469;28;20013;-82
2022/06/24 11:21:00;;;;;;;7.63;1.75;;;26.20;46.60;;;;;;5034707;28;20029;-81
2022/06/24 11:23:31;;;;;;;3.75;1.20;;;26.30;46.80;;;;;;5035260;28;20026;-80
2022/06/24 11:26:01;;;;;;;3.25;1.20;;;26.50;47.40;;;;;;5035187;28;20021;-81
2022/06/24 11:28:35;;;;;;;3.50;1.38;;;26.60;48.00;;;;;;5034903;28;20033;-82
2022/06/24 11:31:28;;;;;;;3.97;1.30;;;26.40;47.70;;;;;;5034965;28;20541;-81
2022/06/24 11:34:03;;;;;;;6.63;2.13;;;26.20;48.50;;;;;;5035364;28;20028;-81
2022/06/24 11:36:31;;;;;;;4.97;1.60;;;25.80;49.20;;;;;;5034823;28;20044;-82
2022/06/24 11:38:58;;;;;;;5.50;1.40;;;25.60;49.60;;;;;;5034740;28;20099;-81
2022/06/24 11:41:29;;;;;;;2.40;1.30;;;25.00;50.30;;;;;;5034904;28;20097;-82
2022/06/24 11:43:55;;;;;;;4.10;1.80;;;24.80;51.70;;;;;;5034761;28;20028;-81
2022/06/24 11:46:21;;;;;;;4.60;1.50;;;24.30;57.00;;;;;;5034876;28;20101;-81
2022/06/24 11:48:46;;;;;;;7.10;2.08;;;23.90;59.40;;;;;;5034407;28;20519;-80
2022/06/24 11:51:22;;;;;;;5.20;1.85;;;23.60;60.50;;;;;;5034390;28;20050;-80
2022/06/24 11:53:56;;;;;;;3.78;1.20;;;23.30;62.20;;;;;;5034376;28;20366;-81
2022/06/24 11:56:23;;;;;;;4.50;1.38;;;23.20;57.90;;;;;;5034361;28;20032;-81
2022/06/24 11:58:48;;;;;;;2.13;1.20;;;23.20;59.10;;;;;;5034312;28;20044;-80
2022/06/24 12:01:15;;;;;;;3.22;1.10;;;23.20;61.60;;;;;;5034189;28;20359;-81
2022/06/24 12:03:41;;;;;;;3.42;1.60;;;23.10;62.20;;;;;;5034299;28;20437;-81
2022/06/24 12:06:07;;;;;;;3.15;1.30;;;23.00;59.90;;;;;;5034255;28;20025;-80
2022/06/24 12:08:32;;;;;;;4.80;1.83;;;22.80;59.40;;;;;;5034136;28;20030;-80
2022/06/24 12:10:58;;;;;;;6.35;1.98;;;22.70;63.20;;;;;;5033983;28;20022;-81
2022/06/24 12:13:32;;;;;;;2.17;1.50;;;22.50;66.30;;;;;;5034052;28;20033;-80
2022/06/24 12:15:58;;;;;;;3.77;1.17;;;22.30;66.70;;;;;;5034160;28;20449;-81
2022/06/24 12:18:25;;;;;;;2.20;1.23;;;22.20;66.90;;;;;;5033868;28;20027;-80
2022/06/24 12:20:59;;;;;;;4.10;1.50;;;22.10;67.20;;;;;;5033568;28;20058;-80
2022/06/24 12:23:39;;;;;;;6.63;1.80;;;22.00;69.10;;;;;;5034023;28;20049;-80
2022/06/24 12:26:23;;;;;;;5.18;1.73;;;21.70;70.20;;;;;;5033743;28;20024;-79
2022/06/24 12:29:00;;;;;;;4.65;1.40;;;21.30;69.50;;;;;;5033633;28;20352;-79
2022/06/24 12:31:26;;;;;;;3.72;1.30;;;21.00;70.10;;;;;;5032712;28;20565;-80
2022/06/24 12:33:53;;;;;;;3.17;1.00;;;20.50;70.60;;;;;;5033546;28;20112;-80
2022/06/24 12:36:21;;;;;;;2.80;1.15;;;20.00;71.80;;;;;;5033483;28;20466;-78
2022/06/24 12:38:53;;;;;;;4.50;0.60;;;19.60;72.90;;;;;;5033492;28;20037;-79
2022/06/24 12:41:20;;;;;;;3.95;1.05;;;19.20;74.90;;;;;;5033306;28;20497;-78
2022/06/24 12:44:01;;;;;;;3.05;1.00;;;18.80;77.90;;;;;;5033423;28;20060;-81
2022/06/24 12:46:32;;;;;;;1.40;0.90;;;18.60;79.10;;;;;;5033362;28;20076;-80
2022/06/24 12:51:44;;;;;;;2.47;0.80;;;18.40;80.10;;;;;;5033095;28;20107;-79
2022/06/24 12:54:12;;;;;;;4.57;1.10;;;18.30;81.30;;;;;;5033299;28;20109;-80
2022/06/24 12:56:38;;;;;;;4.25;1.25;;;18.30;80.80;;;;;;5033248;28;20021;-79
2022/06/24 12:59:04;;;;;;;5.38;1.30;;;18.30;82.10;;;;;;5032991;28;20033;-79
2022/06/24 13:01:31;;;;;;;5.50;1.25;;;18.30;83.00;;;;;;5032723;28;20022;-80
2022/06/24 13:03:57;;;;;;;6.40;1.50;;;18.30;81.90;;;;;;5033152;28;20486;-80
2022/06/24 13:06:23;;;;;;;2.85;0.90;;;18.30;79.70;;;;;;5033011;28;20155;-79